Time;durP1;ratioP1;P1;durP2;ratioP2;P2;SDS_P1;SDS_P2;PMS_P1;PMS_P2;Temp;Humidity;BMP_temperature;BMP_pressure;BME280_temperature;BME280_humidity;BME280_pressure;Samples;Min_cycle;Max_cycle;Signal;HPM_P1;HPM_P2
2022/08/22 00:01:09;;;;;;;1.97;1.80;;;;;;;18.13;100.00;96078.81;5078335;28;20277;-75
2022/08/22 00:03:46;;;;;;;1.90;1.80;;;;;;;18.17;100.00;96080.97;5077495;28;20204;-75
2022/08/22 00:06:22;;;;;;;2.27;1.80;;;;;;;18.19;100.00;96078.78;5073330;28;20212;-75
2022/08/22 00:09:02;;;;;;;3.78;1.70;;;;;;;18.21;100.00;96082.84;5078780;28;20204;-75
2022/08/22 00:11:42;;;;;;;1.90;1.80;;;;;;;18.19;100.00;96095.19;5082525;28;20300;-75
2022/08/22 00:14:19;;;;;;;2.60;1.87;;;;;;;18.20;100.00;96092.16;5083398;28;20218;-75
2022/08/22 00:16:58;;;;;;;6.10;2.03;;;;;;;18.17;100.00;96090.00;5075292;28;20197;-75
2022/08/22 00:19:36;;;;;;;2.50;1.80;;;;;;;18.12;100.00;96096.31;5087703;28;20222;-75
2022/08/22 00:22:15;;;;;;;3.20;1.93;;;;;;;18.11;100.00;96093.88;5073324;28;20227;-75
2022/08/22 00:24:50;;;;;;;4.88;1.85;;;;;;;18.08;100.00;96094.44;5071177;28;20233;-75
2022/08/22 00:27:21;;;;;;;3.90;2.10;;;;;;;18.04;100.00;96088.69;5075387;28;20201;-75
2022/08/22 00:29:53;;;;;;;2.10;1.70;;;;;;;18.06;100.00;96096.63;5083824;28;20205;-75
2022/08/22 00:32:26;;;;;;;5.63;1.50;;;;;;;18.04;100.00;96094.16;5083154;28;20213;-75
2022/08/22 00:35:00;;;;;;;2.20;2.00;;;;;;;17.99;100.00;96096.13;5097052;28;20202;-75
2022/08/22 00:37:33;;;;;;;2.73;1.80;;;;;;;17.81;100.00;96094.88;5078888;28;20215;-75
2022/08/22 00:40:09;;;;;;;2.87;1.70;;;;;;;17.70;100.00;96096.03;5087787;28;20283;-75
2022/08/22 00:43:08;;;;;;;1.93;1.83;;;;;;;17.61;100.00;96087.56;5074137;28;20242;-75
2022/08/22 00:46:09;;;;;;;2.43;1.80;;;;;;;17.55;100.00;96087.88;5030682;28;20228;-75
2022/08/22 00:49:11;;;;;;;1.90;1.70;;;;;;;17.50;100.00;96096.09;5074592;28;20201;-75
2022/08/22 00:51:54;;;;;;;3.50;2.23;;;;;;;17.52;100.00;96091.19;5076897;28;20220;-75
2022/08/22 00:54:36;;;;;;;3.00;1.90;;;;;;;17.52;100.00;96099.38;5073634;28;20213;-75
2022/08/22 00:57:17;;;;;;;2.23;2.00;;;;;;;17.29;100.00;96093.44;5086311;28;20231;-75
2022/08/22 01:00:04;;;;;;;5.00;2.33;;;;;;;17.19;100.00;96088.03;5075113;28;20224;-75
2022/08/22 01:02:44;;;;;;;3.30;2.00;;;;;;;17.18;100.00;96080.94;5079155;28;20201;-75
2022/08/22 01:05:30;;;;;;;2.47;2.10;;;;;;;17.21;100.00;96087.75;5084843;28;20292;-75
2022/08/22 01:08:16;;;;;;;2.53;1.97;;;;;;;17.30;100.00;96089.63;5078095;28;20288;-75
2022/08/22 01:11:03;;;;;;;3.67;2.10;;;;;;;17.30;100.00;96097.81;5072108;28;20213;-75
2022/08/22 01:13:55;;;;;;;3.87;1.93;;;;;;;17.26;100.00;96088.56;5076843;28;20215;-75
2022/08/22 01:16:42;;;;;;;2.33;2.00;;;;;;;17.35;100.00;96088.81;5075284;28;20236;-75
2022/08/22 01:19:52;;;;;;;5.17;2.07;;;;;;;17.39;100.00;96082.50;5083331;28;20213;-75
2022/08/22 01:22:58;;;;;;;3.63;2.03;;;;;;;17.48;100.00;96084.63;5090765;28;20215;-75
2022/08/22 01:25:57;;;;;;;4.40;1.90;;;;;;;17.54;100.00;96091.69;5082182;28;20220;-75
2022/08/22 01:29:09;;;;;;;4.93;1.93;;;;;;;17.60;100.00;96085.13;5071059;28;20224;-75
2022/08/22 01:32:06;;;;;;;3.07;2.27;;;;;;;17.62;100.00;96082.97;5074883;28;20230;-75
2022/08/22 01:34:55;;;;;;;2.67;1.90;;;;;;;17.54;100.00;96078.88;5086591;28;20290;-75
2022/08/22 01:37:52;;;;;;;2.30;2.00;;;;;;;17.46;100.00;96070.44;5086717;28;20299;-75
2022/08/22 01:40:52;;;;;;;3.10;1.80;;;;;;;17.44;100.00;96076.19;5050590;28;20313;-75
2022/08/22 01:43:30;;;;;;;2.23;1.93;;;;;;;17.46;100.00;96079.47;5094009;28;20215;-75
2022/08/22 01:46:24;;;;;;;4.17;1.80;;;;;;;17.42;100.00;96078.41;5078506;28;20213;-75
2022/08/22 01:48:56;;;;;;;2.37;1.80;;;;;;;17.39;100.00;96077.03;5085549;28;20285;-75
2022/08/22 01:51:28;;;;;;;3.97;2.00;;;;;;;17.33;100.00;96069.97;5075035;28;20248;-75
2022/08/22 01:54:02;;;;;;;4.10;2.37;;;;;;;17.33;100.00;96086.34;5084356;28;20308;-75
2022/08/22 01:56:34;;;;;;;4.07;1.90;;;;;;;17.32;100.00;96075.72;5080434;28;20225;-75
2022/08/22 01:59:05;;;;;;;3.67;2.00;;;;;;;17.39;100.00;96081.69;5088723;28;20219;-75
2022/08/22 02:01:47;;;;;;;2.10;1.90;;;;;;;17.36;100.00;96074.84;5083017;28;20284;-75
2022/08/22 02:04:19;;;;;;;2.27;2.03;;;;;;;17.33;100.00;96075.44;5080505;28;20220;-75
2022/08/22 02:07:00;;;;;;;3.50;2.00;;;;;;;17.25;100.00;96078.75;5077969;28;20284;-75
2022/08/22 02:09:36;;;;;;;2.77;2.20;;;;;;;17.24;100.00;96076.28;5084729;28;20345;-75
2022/08/22 02:12:26;;;;;;;2.43;2.10;;;;;;;17.27;100.00;96079.25;5080900;28;20208;-75
2022/08/22 02:15:05;;;;;;;4.47;2.17;;;;;;;17.31;100.00;96080.34;5076964;28;20237;-75
2022/08/22 02:17:35;;;;;;;2.70;2.10;;;;;;;17.36;100.00;96079.50;5077656;28;20205;-75
2022/08/22 02:20:13;;;;;;;5.40;2.17;;;;;;;17.38;100.00;96082.78;5082489;28;20204;-75
2022/08/22 02:22:53;;;;;;;2.80;1.90;;;;;;;17.34;100.00;96085.25;5081627;28;20299;-75
2022/08/22 02:25:25;;;;;;;2.87;2.27;;;;;;;17.26;100.00;96083.09;5095064;28;20219;-75
2022/08/22 02:27:58;;;;;;;2.87;2.37;;;;;;;17.15;100.00;96078.78;5081311;28;20272;-75
2022/08/22 02:30:41;;;;;;;4.97;2.37;;;;;;;17.06;100.00;96088.63;5084528;28;20209;-75
2022/08/22 02:33:13;;;;;;;4.30;2.07;;;;;;;17.05;100.00;96086.16;5073390;28;20205;-75
2022/08/22 02:35:48;;;;;;;3.17;2.03;;;;;;;17.02;100.00;96074.72;5070408;28;20205;-75
2022/08/22 02:38:27;;;;;;;3.07;2.00;;;;;;;17.00;100.00;96082.38;5079029;28;20209;-75
2022/08/22 02:41:06;;;;;;;4.13;2.20;;;;;;;16.99;100.00;96071.75;5081238;28;20289;-75
2022/08/22 02:43:42;;;;;;;3.93;2.17;;;;;;;16.89;100.00;96074.50;5072556;28;20300;-75
2022/08/22 02:46:22;;;;;;;4.30;2.60;;;;;;;16.82;100.00;96074.78;5073541;28;20205;-75
2022/08/22 02:48:58;;;;;;;4.30;2.30;;;;;;;16.84;100.00;96080.75;5076503;28;20201;-75
2022/08/22 02:51:34;;;;;;;3.40;2.17;;;;;;;16.85;100.00;96067.94;5080116;28;20208;-75
2022/08/22 02:54:17;;;;;;;2.20;2.00;;;;;;;16.80;100.00;96076.13;5084774;28;20196;-75
2022/08/22 02:56:50;;;;;;;3.17;2.00;;;;;;;16.67;100.00;96063.09;5087590;28;20255;-75
2022/08/22 02:59:30;;;;;;;5.10;2.03;;;;;;;16.62;100.00;96061.19;5081939;28;20205;-75
2022/08/22 03:02:19;;;;;;;2.83;1.90;;;;;;;16.63;100.00;96066.38;5088581;28;20216;-75
2022/08/22 03:04:51;;;;;;;4.03;2.07;;;;;;;16.65;100.00;96063.38;5081229;28;20205;-75
2022/08/22 03:07:36;;;;;;;4.13;2.07;;;;;;;16.68;100.00;96067.44;5077051;28;20245;-75
2022/08/22 03:10:16;;;;;;;3.53;2.40;;;;;;;16.70;100.00;96063.34;5080827;28;20207;-75
2022/08/22 03:12:53;;;;;;;5.40;2.40;;;;;;;16.70;100.00;96065.25;5087864;28;20205;-75
2022/08/22 03:15:25;;;;;;;6.00;2.47;;;;;;;16.70;100.00;96070.69;5083825;28;20229;-75
2022/08/22 03:17:59;;;;;;;3.10;2.00;;;;;;;16.66;100.00;96064.19;5074368;28;20210;-75
2022/08/22 03:20:42;;;;;;;2.03;1.80;;;;;;;16.63;100.00;96066.38;5084065;28;20267;-75
2022/08/22 03:23:20;;;;;;;2.60;2.10;;;;;;;16.61;100.00;96054.91;5083849;28;20261;-75
2022/08/22 03:25:55;;;;;;;4.60;2.30;;;;;;;16.57;100.00;96059.25;5083851;28;20238;-75
2022/08/22 03:28:28;;;;;;;2.50;2.30;;;;;;;16.48;100.00;96057.38;5084957;28;20213;-75
2022/08/22 03:31:09;;;;;;;4.50;2.50;;;;;;;16.43;100.00;96060.91;5088637;28;20208;-75
2022/08/22 03:33:36;;;;;;;4.20;2.63;;;;;;;16.40;100.00;96061.47;5082295;28;20300;-75
2022/08/22 03:36:12;;;;;;;6.37;2.47;;;;;;;16.34;100.00;96054.34;5079543;28;20242;-75
2022/08/22 03:38:51;;;;;;;2.97;2.40;;;;;;;16.34;100.00;96057.09;5086834;28;20206;-75
2022/08/22 03:41:58;;;;;;;5.37;2.93;;;;;;;16.31;100.00;96060.38;5082451;28;20263;-75
2022/08/22 03:45:07;;;;;;;3.90;2.20;;;;;;;16.30;100.00;96052.47;5056280;28;20300;-75
2022/08/22 03:48:14;;;;;;;3.67;2.50;;;;;;;16.22;100.00;96062.81;5074614;28;20219;-75
2022/08/22 03:51:01;;;;;;;2.63;2.43;;;;;;;16.13;100.00;96063.66;5098391;28;20326;-75
2022/08/22 03:53:59;;;;;;;3.93;2.53;;;;;;;16.10;100.00;96064.19;5099489;28;20205;-75
2022/08/22 03:57:00;;;;;;;5.17;2.30;;;;;;;16.07;100.00;96056.56;5099446;28;20221;-75
2022/08/22 04:00:00;;;;;;;2.43;1.93;;;;;;;16.09;100.00;96052.47;5032054;28;20216;-75
2022/08/22 04:03:12;;;;;;;3.07;2.47;;;;;;;16.11;100.00;96063.09;5038694;28;20228;-75
2022/08/22 04:06:34;;;;;;;5.03;2.70;;;;;;;16.05;100.00;96050.56;5082617;28;20338;-75
2022/08/22 04:09:47;;;;;;;4.50;2.53;;;;;;;16.04;100.00;96054.38;5035235;28;20239;-75
2022/08/22 04:12:46;;;;;;;6.10;4.13;;;;;;;16.05;100.00;96050.56;5073532;28;20208;-75
2022/08/22 04:16:09;;;;;;;3.17;2.10;;;;;;;16.02;100.00;96056.53;5063386;28;20239;-75
2022/08/22 04:18:52;;;;;;;6.47;2.40;;;;;;;16.02;100.00;96051.09;5054487;28;20250;-75
2022/08/22 04:21:58;;;;;;;2.87;2.20;;;;;;;15.95;100.00;96056.00;5081124;28;20240;-75
2022/08/22 04:24:52;;;;;;;6.40;2.50;;;;;;;15.96;100.00;96055.75;5078573;28;20208;-75
2022/08/22 04:27:25;;;;;;;3.30;2.47;;;;;;;15.86;100.00;96053.81;5070972;28;20209;-75
2022/08/22 04:29:58;;;;;;;4.10;2.17;;;;;;;15.85;100.00;96054.91;5070925;28;20243;-76
2022/08/22 04:32:35;;;;;;;2.97;2.43;;;;;;;15.91;100.00;96057.66;5087375;28;20219;-76
2022/08/22 04:35:08;;;;;;;4.53;2.47;;;;;;;15.92;100.00;96051.09;5091789;28;20212;-76
2022/08/22 04:37:42;;;;;;;4.17;2.30;;;;;;;15.89;100.00;96053.28;5080437;28;20208;-76
2022/08/22 04:40:19;;;;;;;3.30;2.40;;;;;;;15.86;100.00;96051.09;5078542;28;20228;-76
2022/08/22 04:42:53;;;;;;;2.90;2.40;;;;;;;15.88;100.00;96050.84;5072090;28;20296;-76
2022/08/22 04:45:25;;;;;;;2.77;2.27;;;;;;;15.91;100.00;96052.19;5094380;28;20247;-75
2022/08/22 04:47:58;;;;;;;6.00;2.83;;;;;;;15.84;100.00;96053.25;5069437;28;20209;-75
2022/08/22 04:50:31;;;;;;;2.73;2.53;;;;;;;15.91;100.00;96060.38;5080541;28;20201;-75
2022/08/22 04:53:18;;;;;;;3.13;2.40;;;;;;;15.99;100.00;96059.84;5076874;28;20347;-75
2022/08/22 04:55:56;;;;;;;4.43;2.20;;;;;;;15.98;100.00;96063.63;5082358;28;20212;-75
2022/08/22 04:58:34;;;;;;;6.33;2.57;;;;;;;16.01;100.00;96063.06;5084378;28;20355;-75
2022/08/22 05:01:09;;;;;;;5.43;2.33;;;;;;;16.04;100.00;96070.72;5084866;28;20443;-75
2022/08/22 05:03:41;;;;;;;2.43;2.17;;;;;;;16.03;100.00;96067.19;5089137;28;20200;-75
2022/08/22 05:06:12;;;;;;;2.70;2.23;;;;;;;16.06;100.00;96065.81;5086453;28;20209;-75
2022/08/22 05:08:41;;;;;;;3.23;2.17;;;;;;;16.01;100.00;96074.78;5089210;28;20209;-75
2022/08/22 05:11:11;;;;;;;3.03;2.40;;;;;;;16.00;100.00;96069.59;5086949;28;20200;-75
2022/08/22 05:13:42;;;;;;;5.83;2.40;;;;;;;16.01;100.00;96069.34;5088181;28;20291;-75
2022/08/22 05:16:13;;;;;;;3.20;2.37;;;;;;;16.06;100.00;96069.38;5085576;28;20240;-75
2022/08/22 05:18:46;;;;;;;2.40;2.20;;;;;;;16.05;100.00;96070.44;5085220;28;20201;-75
2022/08/22 05:21:17;;;;;;;3.10;2.17;;;;;;;15.95;100.00;96075.88;5073673;28;20302;-75
2022/08/22 05:23:50;;;;;;;2.37;2.10;;;;;;;15.88;100.00;96076.16;5090709;28;20303;-75
2022/08/22 05:26:20;;;;;;;7.73;2.60;;;;;;;15.89;100.00;96085.97;5094185;28;20267;-75
2022/08/22 05:28:49;;;;;;;2.67;2.27;;;;;;;15.89;100.00;96085.97;5081238;28;20208;-75
2022/08/22 05:31:22;;;;;;;2.70;2.30;;;;;;;15.87;100.00;96085.41;5091944;28;20683;-75
2022/08/22 05:33:53;;;;;;;4.33;2.17;;;;;;;15.85;100.00;96079.41;5081819;28;20200;-75
2022/08/22 05:36:24;;;;;;;3.17;2.17;;;;;;;15.84;100.00;96072.31;5080607;28;20291;-75
2022/08/22 05:38:56;;;;;;;3.00;2.17;;;;;;;15.86;100.00;96078.31;5087529;28;20220;-75
2022/08/22 05:41:30;;;;;;;2.70;2.00;;;;;;;15.84;100.00;96083.22;5086403;28;20225;-75
2022/08/22 05:43:57;;;;;;;4.60;2.40;;;;;;;15.84;100.00;96077.75;5086238;28;20205;-76
2022/08/22 05:46:32;;;;;;;4.13;2.30;;;;;;;15.83;100.00;96070.69;5081861;28;20205;-76
2022/08/22 05:49:02;;;;;;;4.33;2.43;;;;;;;15.83;100.00;96076.13;5089295;28;20203;-74
2022/08/22 05:51:39;;;;;;;6.27;2.47;;;;;;;15.88;100.00;96065.25;5089050;28;20243;-74
2022/08/22 05:54:12;;;;;;;4.70;2.67;;;;;;;15.94;100.00;96065.25;5089008;28;20207;-74
2022/08/22 05:56:47;;;;;;;4.20;2.50;;;;;;;15.94;100.00;96062.53;5087740;28;20264;-74
2022/08/22 05:59:23;;;;;;;3.00;2.33;;;;;;;15.98;100.00;96071.81;5077968;28;20209;-74
2022/08/22 06:02:00;;;;;;;2.53;2.13;;;;;;;15.98;100.00;96071.81;5085342;28;20224;-74
2022/08/22 06:04:35;;;;;;;12.57;4.10;;;;;;;16.00;100.00;96075.06;5083359;28;20213;-74
2022/08/22 06:07:08;;;;;;;2.70;2.20;;;;;;;15.98;100.00;96072.63;5079720;28;20224;-74
2022/08/22 06:09:58;;;;;;;3.37;2.40;;;;;;;15.95;100.00;96069.63;5071127;28;20214;-74
2022/08/22 06:12:34;;;;;;;4.13;2.30;;;;;;;15.93;100.00;96074.50;5077690;28;20228;-74
2022/08/22 06:15:07;;;;;;;4.33;2.73;;;;;;;15.99;100.00;96068.00;5079791;28;20232;-74
2022/08/22 06:17:39;;;;;;;2.50;2.10;;;;;;;16.00;100.00;96069.59;5073753;28;20205;-74
2022/08/22 06:20:09;;;;;;;2.40;2.17;;;;;;;15.96;100.00;96074.81;5084998;28;20284;-74
2022/08/22 06:22:42;;;;;;;5.37;2.27;;;;;;;16.05;100.00;96075.91;5076384;28;20256;-74
2022/08/22 06:25:16;;;;;;;2.40;2.20;;;;;;;16.10;100.00;96080.50;5075285;28;20212;-74
2022/08/22 06:27:48;;;;;;;3.90;2.50;;;;;;;16.05;100.00;96073.19;5075491;28;20247;-74
2022/08/22 06:30:17;;;;;;;2.10;1.90;;;;;;;16.07;100.00;96081.09;5072103;28;20288;-74
2022/08/22 06:32:48;;;;;;;3.77;2.40;;;;;;;16.03;100.00;96079.97;5086303;28;20193;-74
2022/08/22 06:35:21;;;;;;;3.90;2.40;;;;;;;16.03;100.00;96086.25;5084306;28;20213;-74
2022/08/22 06:37:50;;;;;;;5.37;2.77;;;;;;;16.07;100.00;96083.81;5079100;28;20253;-74
2022/08/22 06:40:18;;;;;;;3.87;3.00;;;;;;;16.07;100.00;96086.53;5094093;28;20237;-74
2022/08/22 06:42:50;;;;;;;2.93;2.60;;;;;;;16.06;100.00;96095.78;5096709;28;20225;-74
2022/08/22 06:45:21;;;;;;;7.60;3.67;;;;;;;16.08;100.00;96094.41;5082406;28;20216;-74
2022/08/22 06:47:52;;;;;;;3.70;2.63;;;;;;;16.07;100.00;96086.53;5091966;28;20212;-74
2022/08/22 06:50:26;;;;;;;8.83;2.90;;;;;;;16.13;100.00;96079.97;5078291;28;20239;-74
2022/08/22 06:52:59;;;;;;;10.10;3.70;;;;;;;16.15;100.00;96088.72;5074782;28;20258;-74
2022/08/22 06:55:28;;;;;;;12.63;3.97;;;;;;;16.13;100.00;96085.44;5076421;28;20204;-74
2022/08/22 06:58:02;;;;;;;11.83;3.23;;;;;;;16.10;100.00;96078.63;5086829;28;20207;-74
2022/08/22 07:00:32;;;;;;;7.63;3.10;;;;;;;16.10;100.00;96081.34;5086323;28;20209;-74
2022/08/22 07:03:07;;;;;;;4.67;2.60;;;;;;;16.12;100.00;96084.63;5094417;28;20290;-74
2022/08/22 07:05:37;;;;;;;5.33;2.57;;;;;;;16.12;100.00;96087.34;5076959;28;20235;-74
2022/08/22 07:08:07;;;;;;;5.33;2.27;;;;;;;16.12;100.00;96084.63;5092020;28;20213;-74
2022/08/22 07:10:34;;;;;;;3.50;2.33;;;;;;;16.13;100.00;96088.97;5087273;28;20225;-73
2022/08/22 07:13:07;;;;;;;3.27;2.23;;;;;;;16.14;100.00;96087.88;5076954;28;20215;-74
2022/08/22 07:15:37;;;;;;;4.03;2.43;;;;;;;16.16;100.00;96093.06;5103088;28;20336;-74
2022/08/22 07:18:07;;;;;;;5.27;2.70;;;;;;;16.15;100.00;96096.88;5091389;28;20208;-74
2022/08/22 07:20:37;;;;;;;4.40;2.30;;;;;;;16.13;100.00;96097.16;5086645;28;20220;-74
2022/08/22 07:23:08;;;;;;;9.77;3.37;;;;;;;16.16;100.00;96109.41;5079195;28;20313;-75
2022/08/22 07:25:51;;;;;;;3.53;2.87;;;;;;;16.13;100.00;96112.66;5080715;28;20215;-75
2022/08/22 07:28:29;;;;;;;4.93;2.53;;;;;;;16.24;100.00;96109.69;5081655;28;20200;-75
2022/08/22 07:31:00;;;;;;;5.50;2.87;;;;;;;16.22;100.00;96106.41;5075872;28;20201;-75
2022/08/22 07:33:41;;;;;;;3.27;2.40;;;;;;;16.19;100.00;96117.03;5072018;28;20201;-75
2022/08/22 07:36:22;;;;;;;3.13;2.23;;;;;;;16.22;100.00;96111.03;5070880;28;20234;-75
2022/08/22 07:39:03;;;;;;;5.77;3.00;;;;;;;16.22;100.00;96100.16;5087402;28;20362;-75
2022/08/22 07:41:40;;;;;;;3.60;2.50;;;;;;;16.30;100.00;96102.34;5089450;28;20200;-76
2022/08/22 07:44:16;;;;;;;4.80;2.30;;;;;;;16.39;100.00;96114.31;5083203;28;20211;-76
2022/08/22 07:46:56;;;;;;;5.73;2.23;;;;;;;16.47;100.00;96105.59;5084239;28;20255;-76
2022/08/22 07:49:28;;;;;;;2.70;2.50;;;;;;;16.53;100.00;96100.94;5088727;28;20197;-76
2022/08/22 07:51:59;;;;;;;5.97;3.33;;;;;;;16.57;100.00;96105.59;5074830;28;20202;-76
2022/08/22 07:54:35;;;;;;;3.83;2.93;;;;;;;16.76;100.00;96099.63;5071185;28;20300;-75
2022/08/22 07:57:06;;;;;;;3.50;2.63;;;;;;;16.94;100.00;96108.00;5069050;28;20217;-75
2022/08/22 07:59:38;;;;;;;3.53;2.37;;;;;;;17.33;100.00;96105.47;5080876;28;20229;-76
2022/08/22 08:02:11;;;;;;;2.60;2.40;;;;;;;17.61;100.00;96103.94;5086018;28;20229;-76
2022/08/22 08:04:40;;;;;;;2.33;2.10;;;;;;;17.93;100.00;96103.56;5085984;28;20207;-76
2022/08/22 08:07:10;;;;;;;4.00;2.10;;;;;;;18.31;100.00;96104.63;5091290;28;20243;-76
2022/08/22 08:09:48;;;;;;;2.03;1.90;;;;;;;18.83;100.00;96111.34;5079793;28;20209;-76
2022/08/22 08:12:19;;;;;;;2.20;2.00;;;;;;;19.07;100.00;96103.97;5070109;28;20200;-76
2022/08/22 08:14:52;;;;;;;1.70;1.60;;;;;;;19.36;100.00;96098.47;5101267;28;20233;-76
2022/08/22 08:17:24;;;;;;;5.13;1.90;;;;;;;19.50;100.00;96096.66;5083772;28;20304;-76
2022/08/22 08:19:52;;;;;;;1.40;1.30;;;;;;;19.63;100.00;96093.22;5074241;28;20212;-76
2022/08/22 08:22:24;;;;;;;1.80;1.70;;;;;;;19.47;100.00;96094.53;5091276;28;20223;-76
2022/08/22 08:24:56;;;;;;;3.70;1.70;;;;;;;19.75;100.00;96097.44;5081335;28;20247;-76
2022/08/22 08:30:17;;;;;;;2.95;2.13;;;;;;;20.03;100.00;96091.03;5085211;28;20215;-76
2022/08/22 08:32:49;;;;;;;5.13;1.85;;;;;;;20.18;100.00;96092.72;5085785;28;20214;-76
2022/08/22 08:35:22;;;;;;;2.53;1.77;;;;;;;20.41;100.00;96085.56;5091249;28;20218;-76
2022/08/22 08:37:56;;;;;;;2.30;2.10;;;;;;;20.43;100.00;96088.78;5086898;28;20205;-76
2022/08/22 08:40:42;;;;;;;3.30;2.00;;;;;;;20.85;100.00;96083.13;5073011;28;20205;-76
2022/08/22 08:43:28;;;;;;;2.45;2.17;;;;;;;21.18;97.10;96077.63;5077168;28;20236;-76
2022/08/22 08:46:24;;;;;;;3.53;1.90;;;;;;;21.51;94.76;96082.72;5074269;28;20283;-77
2022/08/22 08:49:21;;;;;;;3.35;2.20;;;;;;;21.86;88.96;96085.84;5083556;28;20208;-76
2022/08/22 08:52:12;;;;;;;5.70;2.10;;;;;;;22.03;86.91;96082.47;5085440;28;20201;-76
2022/08/22 08:54:54;;;;;;;2.80;2.00;;;;;;;22.33;87.30;96081.75;5070442;28;20232;-76
2022/08/22 08:57:35;;;;;;;3.38;2.00;;;;;;;22.57;86.87;96071.25;5093728;28;20226;-76
2022/08/22 09:00:09;;;;;;;2.13;1.92;;;;;;;22.38;86.13;96061.56;5085775;28;20197;-76
2022/08/22 09:03:04;;;;;;;1.92;1.83;;;;;;;22.49;84.75;96062.94;5108388;28;20212;-76
2022/08/22 09:05:54;;;;;;;2.83;2.20;;;;;;;22.76;83.90;96060.09;5092722;28;20197;-76
2022/08/22 09:08:45;;;;;;;3.55;2.10;;;;;;;22.95;82.53;96066.19;5090308;28;20231;-76
2022/08/22 09:11:43;;;;;;;3.30;2.30;;;;;;;23.04;81.21;96057.97;5075970;28;20304;-75
2022/08/22 09:14:24;;;;;;;3.67;2.33;;;;;;;23.03;81.40;96067.38;5087160;28;20205;-76
2022/08/22 09:17:14;;;;;;;3.17;2.40;;;;;;;22.96;80.91;96056.00;5077829;28;20229;-76
2022/08/22 09:20:23;;;;;;;5.38;2.30;;;;;;;23.09;81.24;96054.25;5085551;28;20233;-76
2022/08/22 09:23:17;;;;;;;2.75;2.00;;;;;;;23.25;80.19;96048.00;5079064;28;20225;-76
2022/08/22 09:25:49;;;;;;;2.90;2.35;;;;;;;23.50;78.78;96042.94;5075823;28;20202;-76
2022/08/22 09:28:23;;;;;;;3.15;2.28;;;;;;;23.66;77.27;96044.91;5083600;28;20211;-76
2022/08/22 09:31:06;;;;;;;3.30;2.00;;;;;;;23.73;75.73;96041.72;5070866;28;20246;-76
2022/08/22 09:33:38;;;;;;;2.40;1.95;;;;;;;23.67;76.36;96037.47;5068744;28;20240;-75
2022/08/22 09:36:12;;;;;;;2.53;2.00;;;;;;;23.72;75.68;96031.81;5083167;28;20205;-75
2022/08/22 09:38:54;;;;;;;2.20;2.00;;;;;;;23.70;76.33;96025.81;5082419;28;20213;-75
2022/08/22 09:41:33;;;;;;;1.95;1.80;;;;;;;23.70;74.98;96023.84;5075106;28;20213;-76
2022/08/22 09:44:12;;;;;;;3.03;2.15;;;;;;;23.65;74.74;96018.47;5082426;28;20236;-76
2022/08/22 09:46:57;;;;;;;3.13;1.88;;;;;;;23.80;75.74;96014.47;5087892;28;20458;-75
2022/08/22 09:49:35;;;;;;;2.60;2.10;;;;;;;23.91;74.18;96014.94;5088578;28;20213;-75
2022/08/22 09:52:09;;;;;;;1.92;1.80;;;;;;;23.95;73.37;96015.94;5087796;28;20205;-74
2022/08/22 09:54:45;;;;;;;5.15;2.20;;;;;;;24.21;74.28;96000.22;5090366;28;20217;-74
2022/08/22 09:57:20;;;;;;;2.38;2.10;;;;;;;24.27;73.34;96000.88;5091670;28;20219;-74
2022/08/22 10:00:01;;;;;;;3.13;2.42;;;;;;;24.29;73.80;96002.19;5090223;28;20208;-74
2022/08/22 10:02:37;;;;;;;2.58;2.00;;;;;;;24.22;73.19;96001.06;5087437;28;20288;-75
2022/08/22 10:05:14;;;;;;;2.03;1.92;;;;;;;24.25;73.08;95998.44;5080084;28;20280;-74
2022/08/22 10:08:01;;;;;;;2.60;2.15;;;;;;;24.20;71.97;95992.25;5082089;28;20291;-74
2022/08/22 10:10:50;;;;;;;2.10;1.90;;;;;;;24.34;74.53;95990.16;5067435;28;20213;-74
2022/08/22 10:13:30;;;;;;;3.70;2.05;;;;;;;24.29;70.93;95993.09;5099147;27;20209;-75
2022/08/22 10:16:14;;;;;;;3.58;2.03;;;;;;;24.26;71.27;95988.22;5071861;28;20233;-74
2022/08/22 10:18:50;;;;;;;2.58;2.03;;;;;;;24.38;71.50;96000.22;5093257;28;20197;-75
2022/08/22 10:21:30;;;;;;;2.67;2.10;;;;;;;24.44;71.70;95993.38;5088729;28;20217;-75
2022/08/22 10:24:03;;;;;;;2.40;2.10;;;;;;;24.34;71.23;96001.19;5087963;28;20220;-74
2022/08/22 10:26:40;;;;;;;2.33;1.90;;;;;;;24.35;72.73;95992.59;5089774;28;20208;-74
2022/08/22 10:29:31;;;;;;;3.38;2.10;;;;;;;24.47;72.19;96000.22;5093965;28;20200;-74
2022/08/22 10:32:11;;;;;;;2.50;2.05;;;;;;;24.79;73.08;95994.13;5084073;28;20329;-74
2022/08/22 10:34:47;;;;;;;2.40;2.20;;;;;;;25.11;71.75;95989.97;5087134;28;20232;-76
2022/08/22 10:37:22;;;;;;;2.45;2.00;;;;;;;25.27;71.12;95991.03;5076905;28;20303;-74
2022/08/22 10:40:00;;;;;;;2.63;1.90;;;;;;;25.20;69.37;95984.41;5073857;28;20205;-74
2022/08/22 10:42:36;;;;;;;2.60;2.05;;;;;;;25.24;67.20;95993.66;5088527;28;20295;-75
2022/08/22 10:45:18;;;;;;;2.72;2.10;;;;;;;25.41;67.89;95990.81;5086233;28;20197;-74
2022/08/22 10:48:30;;;;;;;3.63;2.08;;;;;;;25.36;66.81;95993.75;5085282;28;20205;-75
2022/08/22 10:51:16;;;;;;;2.60;2.10;;;;;;;25.47;64.07;95996.94;5087783;28;20231;-75
2022/08/22 10:53:56;;;;;;;2.38;2.13;;;;;;;25.48;66.02;95993.84;5095204;28;20208;-75
2022/08/22 10:56:28;;;;;;;2.95;2.17;;;;;;;25.50;66.33;95994.31;5078048;28;20233;-76
2022/08/22 10:59:05;;;;;;;2.55;2.08;;;;;;;25.41;66.93;96001.03;5075255;28;20284;-75
2022/08/22 11:01:37;;;;;;;2.22;2.03;;;;;;;25.46;67.02;96001.66;5082858;28;20212;-75
2022/08/22 11:04:11;;;;;;;2.42;2.20;;;;;;;25.55;66.39;96004.38;5098664;28;20221;-75
2022/08/22 11:06:45;;;;;;;2.65;2.13;;;;;;;25.61;65.66;95997.53;5084427;28;20193;-76
2022/08/22 11:09:26;;;;;;;3.75;2.20;;;;;;;25.74;65.77;95998.44;5100708;27;20201;-75
2022/08/22 11:11:59;;;;;;;3.63;1.90;;;;;;;25.80;66.76;96006.19;5079282;28;20212;-75
2022/08/22 11:14:55;;;;;;;2.30;2.10;;;;;;;25.80;66.18;95994.31;5084344;28;20211;-75
2022/08/22 11:17:49;;;;;;;3.63;2.13;;;;;;;25.98;66.36;96001.34;5075238;28;20217;-75
2022/08/22 11:20:22;;;;;;;3.03;2.30;;;;;;;26.25;63.03;95998.03;5091359;28;20209;-74
2022/08/22 11:23:11;;;;;;;3.25;2.28;;;;;;;26.36;64.12;95999.28;5078931;28;20209;-75
2022/08/22 11:25:50;;;;;;;3.05;1.98;;;;;;;26.45;62.25;95995.63;5084956;28;20201;-75
2022/08/22 11:28:45;;;;;;;2.83;2.38;;;;;;;26.65;63.10;95997.53;5084361;28;20224;-75
2022/08/22 11:31:23;;;;;;;2.85;2.03;;;;;;;26.84;61.11;95986.72;5086102;28;20232;-75
2022/08/22 11:33:55;;;;;;;3.10;1.90;;;;;;;27.02;60.56;95999.25;5071292;28;20197;-75
2022/08/22 11:36:30;;;;;;;2.53;2.00;;;;;;;26.89;58.89;95989.25;5086797;28;20204;-75
2022/08/22 11:39:19;;;;;;;2.50;2.17;;;;;;;27.01;59.30;95988.53;5099267;28;20203;-75
2022/08/22 11:41:56;;;;;;;2.55;2.17;;;;;;;27.28;60.28;95984.28;5079126;27;20209;-75
2022/08/22 11:44:29;;;;;;;6.40;2.08;;;;;;;27.24;57.53;95980.56;5078329;28;20252;-74
2022/08/22 11:47:01;;;;;;;2.95;2.30;;;;;;;26.94;58.25;95979.97;5076000;28;20296;-74
2022/08/22 11:49:38;;;;;;;5.18;2.03;;;;;;;26.96;59.02;95975.72;5082974;28;20209;-75
2022/08/22 11:52:17;;;;;;;2.47;2.00;;;;;;;27.25;57.05;95979.41;5083857;28;20212;-74
2022/08/22 11:55:12;;;;;;;2.60;2.10;;;;;;;27.31;53.61;95964.16;5086819;28;20196;-74
2022/08/22 11:57:43;;;;;;;2.90;1.83;;;;;;;27.32;55.03;95966.59;5080779;28;20228;-75
2022/08/22 12:00:23;;;;;;;4.38;2.03;;;;;;;27.37;53.43;95963.59;5086875;28;20237;-74
2022/08/22 12:03:26;;;;;;;2.78;1.92;;;;;;;27.41;53.60;95958.16;5085239;28;20201;-74
2022/08/22 12:05:57;;;;;;;2.10;1.90;;;;;;;27.62;53.73;95950.56;5041982;28;20242;-74
2022/08/22 12:08:57;;;;;;;3.58;2.13;;;;;;;27.63;52.86;95959.69;5087358;28;20216;-74
2022/08/22 12:11:27;;;;;;;2.53;2.20;;;;;;;27.59;52.24;95961.53;5080764;28;20217;-74
2022/08/22 12:14:00;;;;;;;2.90;2.00;;;;;;;27.66;51.12;95957.00;5086416;28;20219;-74
2022/08/22 12:16:37;;;;;;;3.40;1.92;;;;;;;27.69;50.91;95950.75;5086211;28;20225;-74
2022/08/22 12:19:18;;;;;;;3.53;2.22;;;;;;;27.66;52.02;95951.44;5095670;28;20297;-74
2022/08/22 12:22:17;;;;;;;2.60;2.00;;;;;;;27.70;51.36;95949.59;5068777;28;20216;-74
2022/08/22 12:25:04;;;;;;;1.95;1.80;;;;;;;27.70;50.79;95946.84;5080690;28;20407;-74
2022/08/22 12:27:53;;;;;;;2.35;2.15;;;;;;;27.70;50.55;95944.06;5083409;28;20303;-74